Time;durP1;ratioP1;P1;durP2;ratioP2;P2;SDS_P1;SDS_P2;PMS_P1;PMS_P2;Temp;Humidity;BMP_temperature;BMP_pressure;BME280_temperature;BME280_humidity;BME280_pressure;Samples;Min_cycle;Max_cycle;Signal;HPM_P1;HPM_P2
2022/03/01 00:01:48;;;;;;;24.52;16.33;;;;;;;-2.12;100.00;93620.50;5089446;28;20523;-80
2022/03/01 00:04:15;;;;;;;22.35;13.82;;;;;;;-2.17;100.00;93622.56;5080230;28;20053;-81
2022/03/01 00:06:42;;;;;;;21.70;13.15;;;;;;;-2.52;100.00;93616.88;5069376;28;20036;-80
2022/03/01 00:09:09;;;;;;;22.42;14.90;;;;;;;-3.05;100.00;93610.03;5068753;28;20549;-80
2022/03/01 00:11:35;;;;;;;24.40;14.98;;;;;;;-2.98;100.00;93614.47;5069002;28;20040;-80
2022/03/01 00:14:03;;;;;;;23.80;14.57;;;;;;;-2.83;100.00;93606.66;5069361;28;20067;-81
2022/03/01 00:16:30;;;;;;;23.55;15.35;;;;;;;-2.74;100.00;93600.94;5069052;28;20049;-81
2022/03/01 00:18:58;;;;;;;19.58;13.50;;;;;;;-2.73;100.00;93596.72;5069480;28;20041;-81
2022/03/01 00:21:26;;;;;;;24.35;14.25;;;;;;;-2.68;100.00;93594.63;5073242;28;20056;-81
2022/03/01 00:23:53;;;;;;;26.67;15.13;;;;;;;-3.04;100.00;93567.19;5073236;28;20391;-81
2022/03/01 00:26:20;;;;;;;19.67;13.15;;;;;;;-2.78;100.00;93594.53;5072731;28;20051;-81
2022/03/01 00:28:46;;;;;;;19.70;13.38;;;;;;;-2.82;100.00;93583.13;5073242;28;20071;-81
2022/03/01 00:31:13;;;;;;;19.80;13.02;;;;;;;-2.74;100.00;93585.84;5072921;28;20549;-81
2022/03/01 00:33:41;;;;;;;18.05;11.52;;;;;;;-2.87;100.00;93575.94;5078382;28;20040;-81
2022/03/01 00:36:09;;;;;;;18.23;13.32;;;;;;;-2.81;100.00;93592.28;5093040;28;20040;-81
2022/03/01 00:38:37;;;;;;;19.42;13.02;;;;;;;-2.76;100.00;93591.91;5093185;28;20493;-81
2022/03/01 00:41:03;;;;;;;25.20;13.75;;;;;;;-2.88;100.00;93571.81;5093401;28;20097;-82
2022/03/01 00:43:30;;;;;;;22.27;14.13;;;;;;;-2.98;100.00;93576.78;5093616;28;20692;-82
2022/03/01 00:45:57;;;;;;;21.48;14.55;;;;;;;-3.05;100.00;93564.78;5093642;28;20044;-82
2022/03/01 00:48:24;;;;;;;22.88;13.55;;;;;;;-2.97;100.00;93575.84;5093907;28;20059;-82
2022/03/01 00:50:51;;;;;;;25.20;14.95;;;;;;;-2.92;100.00;93585.53;5093424;28;20391;-82
2022/03/01 00:53:20;;;;;;;19.98;14.48;;;;;;;-2.93;100.00;93575.63;5093096;28;20040;-81
2022/03/01 00:55:47;;;;;;;19.92;13.93;;;;;;;-3.22;100.00;93540.03;5092284;28;20052;-82
2022/03/01 00:58:14;;;;;;;21.92;14.63;;;;;;;-3.03;100.00;93568.78;5092921;28;20044;-82
2022/03/01 01:00:41;;;;;;;22.25;14.88;;;;;;;-3.09;100.00;93557.47;5089763;28;20052;-82
2022/03/01 01:03:08;;;;;;;24.08;15.43;;;;;;;-3.43;100.00;93516.56;5090379;28;20048;-81
2022/03/01 01:05:34;;;;;;;24.42;14.52;;;;;;;-3.07;100.00;93571.66;5071520;28;20037;-81
2022/03/01 01:08:01;;;;;;;23.13;13.73;;;;;;;-3.38;100.00;93534.59;5072043;28;20492;-82
2022/03/01 01:10:29;;;;;;;19.65;13.75;;;;;;;-3.77;100.00;93493.09;5072426;28;20040;-83
2022/03/01 01:12:56;;;;;;;20.77;13.68;;;;;;;-3.77;100.00;93504.81;5071865;28;20044;-83
2022/03/01 01:15:23;;;;;;;21.88;13.30;;;;;;;-3.30;100.00;93569.97;5072986;28;20044;-83
2022/03/01 01:17:50;;;;;;;22.83;14.95;;;;;;;-3.66;100.00;93522.38;5072731;28;20420;-82
2022/03/01 01:20:18;;;;;;;21.63;14.02;;;;;;;-3.57;100.00;93538.47;5072182;28;20044;-82
2022/03/01 01:22:45;;;;;;;21.48;14.10;;;;;;;-3.62;100.00;93530.50;5072094;28;20040;-82
2022/03/01 01:25:15;;;;;;;20.33;14.55;;;;;;;-3.38;100.00;93569.75;5071816;28;20434;-82
2022/03/01 01:27:46;;;;;;;20.58;13.60;;;;;;;-3.40;100.00;93561.53;5072039;28;20045;-82
2022/03/01 01:30:16;;;;;;;34.60;20.20;;;;;;;-3.44;100.00;93555.94;5071742;28;20048;-83
2022/03/01 01:32:44;;;;;;;23.50;15.77;;;;;;;-4.02;100.00;93457.25;5071304;28;20418;-83
2022/03/01 01:35:13;;;;;;;22.33;14.90;;;;;;;-3.44;100.00;93548.41;5089945;28;20436;-83
2022/03/01 01:37:40;;;;;;;18.75;13.07;;;;;;;-3.82;100.00;93496.84;5092571;28;20044;-83
2022/03/01 01:40:12;;;;;;;23.25;13.70;;;;;;;-3.59;100.00;93542.81;5092427;28;20054;-83
2022/03/01 01:42:40;;;;;;;26.83;15.57;;;;;;;-3.72;100.00;93525.38;5092239;28;20093;-83
2022/03/01 01:45:10;;;;;;;25.98;13.73;;;;;;;-3.92;100.00;93509.28;5092713;28;20569;-83
2022/03/01 01:47:37;;;;;;;24.38;15.27;;;;;;;-3.79;100.00;93526.75;5092891;28;20063;-83
2022/03/01 01:50:05;;;;;;;23.83;14.88;;;;;;;-4.02;100.00;93487.38;5092496;28;20452;-83
2022/03/01 01:52:31;;;;;;;24.90;16.05;;;;;;;-3.81;100.00;93526.03;5092163;28;20051;-83
2022/03/01 01:54:58;;;;;;;22.25;16.10;;;;;;;-3.87;100.00;93526.50;5092233;28;20055;-83
2022/03/01 01:57:26;;;;;;;28.13;17.77;;;;;;;-3.83;100.00;93517.84;5091501;28;20051;-83
2022/03/01 01:59:56;;;;;;;24.42;16.60;;;;;;;-3.95;100.00;93490.22;5091850;28;20101;-83
2022/03/01 02:02:25;;;;;;;15.82;11.85;;;;;;;-4.03;100.00;93500.84;5091720;28;20050;-82
2022/03/01 02:04:52;;;;;;;10.00;6.00;;;;;;;-4.31;100.00;93487.00;5077585;28;20052;-82
2022/03/01 02:07:19;;;;;;;9.07;5.60;;;;;;;-4.34;100.00;93503.09;5071568;28;20044;-82
2022/03/01 02:09:46;;;;;;;9.80;6.25;;;;;;;-5.32;100.00;93368.91;5071871;28;20056;-83
2022/03/01 02:12:13;;;;;;;8.27;5.70;;;;;;;-4.59;100.00;93437.16;5070800;28;21057;-82
2022/03/01 02:14:41;;;;;;;11.25;6.95;;;;;;;-4.10;100.00;93503.91;5076740;28;20043;-82
2022/03/01 02:17:10;;;;;;;17.95;13.15;;;;;;;-4.02;100.00;93509.16;5074032;28;20053;-82
2022/03/01 02:19:39;;;;;;;18.95;12.85;;;;;;;-4.14;100.00;93510.06;5082887;28;20127;-82
2022/03/01 02:22:08;;;;;;;20.52;13.70;;;;;;;-4.23;100.00;93504.81;5090720;28;20044;-81
2022/03/01 02:24:35;;;;;;;27.42;18.45;;;;;;;-4.63;100.00;93453.34;5090795;28;20480;-83
2022/03/01 02:27:05;;;;;;;29.40;17.27;;;;;;;-4.17;100.00;93519.41;5090988;28;20121;-82
2022/03/01 02:29:33;;;;;;;30.30;17.08;;;;;;;-4.36;100.00;93496.59;5090920;28;20040;-84
2022/03/01 02:32:09;;;;;;;29.20;17.38;;;;;;;-4.18;100.00;93524.53;5076114;28;20059;-83
2022/03/01 02:34:36;;;;;;;26.83;16.55;;;;;;;-4.30;100.00;93504.47;5088140;28;20048;-83
2022/03/01 02:37:04;;;;;;;28.10;16.40;;;;;;;-4.10;100.00;93513.94;5078080;28;20400;-83
2022/03/01 02:39:32;;;;;;;26.35;15.35;;;;;;;-5.12;100.00;93420.91;5081180;28;20479;-84
2022/03/01 02:41:59;;;;;;;23.10;14.32;;;;;;;-4.79;100.00;93485.44;5084147;28;20052;-84
2022/03/01 02:44:26;;;;;;;30.02;16.23;;;;;;;-4.54;100.00;93528.81;5087975;28;20089;-83
2022/03/01 02:46:53;;;;;;;20.80;12.80;;;;;;;-4.61;100.00;93535.97;5086092;28;20063;-84
2022/03/01 02:49:20;;;;;;;17.50;10.85;;;;;;;-4.62;100.00;93542.69;5074386;28;20501;-84
2022/03/01 02:51:46;;;;;;;19.65;10.90;;;;;;;-5.12;100.00;93465.16;5088764;28;20110;-83
2022/03/01 02:54:13;;;;;;;17.13;10.30;;;;;;;-5.50;100.00;93399.34;5090033;28;20051;-83
2022/03/01 02:56:41;;;;;;;14.65;9.02;;;;;;;-5.19;100.00;93448.97;5089397;28;20044;-83
2022/03/01 02:59:08;;;;;;;15.05;9.02;;;;;;;-4.55;100.00;93522.97;5089583;28;20063;-83
2022/03/01 03:01:37;;;;;;;14.55;9.10;;;;;;;-4.69;100.00;93513.94;5081933;28;20040;-83
2022/03/01 03:04:05;;;;;;;16.85;9.52;;;;;;;-4.67;100.00;93508.81;5091109;28;20039;-83
2022/03/01 03:06:32;;;;;;;17.23;10.02;;;;;;;-4.51;100.00;93524.38;5081173;28;20052;-83
2022/03/01 03:08:58;;;;;;;14.82;9.60;;;;;;;-4.67;100.00;93487.06;5073269;28;20049;-84
2022/03/01 03:11:26;;;;;;;13.60;9.98;;;;;;;-4.44;100.00;93514.69;5075785;28;20050;-83
2022/03/01 03:13:54;;;;;;;15.32;9.55;;;;;;;-4.79;100.00;93441.13;5080018;28;20044;-84
2022/03/01 03:16:27;;;;;;;16.00;10.60;;;;;;;-4.24;100.00;93519.97;5078990;28;20064;-86
2022/03/01 03:18:56;;;;;;;14.93;11.00;;;;;;;-4.23;100.00;93512.34;5084453;28;20500;-87
2022/03/01 03:21:36;;;;;;;17.30;11.38;;;;;;;-4.76;100.00;93445.94;5084865;28;20391;-89
2022/03/01 03:24:11;;;;;;;24.75;12.73;;;;;;;-4.65;100.00;93456.88;5090260;28;20047;-88
2022/03/01 03:26:52;;;;;;;21.08;11.32;;;;;;;-4.12;100.00;93533.34;5090093;28;20085;-89
2022/03/01 03:29:37;;;;;;;22.50;12.77;;;;;;;-4.54;100.00;93469.41;5070103;28;20127;-90
2022/03/01 03:32:07;;;;;;;30.25;15.65;;;;;;;-4.98;100.00;93411.59;5069774;28;20072;-89
2022/03/01 03:34:34;;;;;;;35.90;18.38;;;;;;;-4.12;100.00;93546.66;5082979;28;20054;-89
2022/03/01 03:37:01;;;;;;;31.55;17.05;;;;;;;-4.75;100.00;93442.50;5090863;28;20067;-90
2022/03/01 03:39:28;;;;;;;28.15;14.70;;;;;;;-4.14;100.00;93535.94;5090591;28;20055;-86
2022/03/01 03:41:55;;;;;;;28.58;15.30;;;;;;;-4.68;100.00;93480.44;5089343;28;20551;-90
2022/03/01 03:44:44;;;;;;;;;;;;;;;;;;;;;
2022/03/01 03:47:11;;;;;;;25.60;14.95;;;;;;;-4.99;100.00;93445.06;5087745;28;20044;-88
2022/03/01 03:49:38;;;;;;;22.45;14.68;;;;;;;-4.88;100.00;93451.81;5089572;28;20264;-88
2022/03/01 03:52:06;;;;;;;27.15;16.67;;;;;;;-4.28;100.00;93531.94;5090419;28;20047;-89
2022/03/01 03:54:33;;;;;;;38.08;20.50;;;;;;;-4.59;100.00;93487.31;5089528;28;20048;-87
2022/03/01 03:57:07;;;;;;;32.97;20.42;;;;;;;-4.90;100.00;93446.91;5089291;28;20126;-87
2022/03/01 03:59:35;;;;;;;34.45;21.02;;;;;;;-4.82;100.00;93463.88;5090042;28;20040;-87
2022/03/01 04:02:02;;;;;;;38.88;21.95;;;;;;;-4.55;100.00;93495.41;5089290;28;20054;-87
2022/03/01 04:04:29;;;;;;;35.28;20.05;;;;;;;-4.55;100.00;93497.91;5078130;28;20060;-87
2022/03/01 04:06:56;;;;;;;31.13;20.67;;;;;;;-4.86;100.00;93470.06;5069828;28;20131;-88
2022/03/01 04:09:23;;;;;;;34.45;21.05;;;;;;;-4.47;100.00;93528.25;5069662;28;20135;-88
2022/03/01 04:11:50;;;;;;;29.88;19.05;;;;;;;-4.49;100.00;93529.28;5069321;28;20049;-88
2022/03/01 04:14:17;;;;;;;25.77;17.92;;;;;;;-4.47;100.00;93525.75;5069275;28;20048;-85
2022/03/01 04:16:46;;;;;;;25.85;16.83;;;;;;;-5.10;100.00;93449.13;5069172;28;20084;-88
2022/03/01 04:19:13;;;;;;;25.05;16.27;;;;;;;-5.33;100.00;93413.16;5069748;28;20040;-86
2022/03/01 04:21:40;;;;;;;38.95;23.25;;;;;;;-4.84;100.00;93491.59;5069061;28;20052;-85
2022/03/01 04:24:08;;;;;;;30.73;20.38;;;;;;;-4.87;100.00;93484.28;5069139;28;20063;-86
2022/03/01 04:26:35;;;;;;;31.20;19.67;;;;;;;-4.58;100.00;93525.72;5069885;28;20044;-86
2022/03/01 04:29:03;;;;;;;35.55;20.30;;;;;;;-4.87;100.00;93489.28;5053549;28;20057;-86
2022/03/01 04:33:57;;;;;;;;;;;;;;;-4.63;100.00;93523.53;5044675;22;20136;-83
2022/03/01 04:36:24;;;;;;;21.83;14.63;;;;;;;-4.65;100.00;93529.56;5029751;28;20007;-82
2022/03/01 04:38:51;;;;;;;17.15;12.70;;;;;;;-4.85;100.00;93512.50;5029181;28;20053;-82
2022/03/01 04:41:18;;;;;;;21.85;12.95;;;;;;;-5.13;100.00;93471.09;5029581;28;20132;-83
2022/03/01 04:43:45;;;;;;;18.27;11.32;;;;;;;-5.64;100.00;93405.31;5029519;28;20140;-83
2022/03/01 04:46:12;;;;;;;19.60;12.13;;;;;;;-4.81;100.00;93539.88;5030014;28;20448;-83
2022/03/01 04:48:39;;;;;;;15.18;11.15;;;;;;;-5.70;100.00;93396.53;5029857;28;20057;-83
2022/03/01 04:51:07;;;;;;;15.65;11.27;;;;;;;-5.38;100.00;93442.75;5029541;28;20058;-86
2022/03/01 04:53:35;;;;;;;15.75;10.55;;;;;;;-5.31;100.00;93468.16;5029961;28;20056;-83
2022/03/01 04:56:02;;;;;;;14.45;10.25;;;;;;;-4.79;100.00;93538.88;5029377;28;20057;-84
2022/03/01 04:58:29;;;;;;;13.60;8.98;;;;;;;-4.83;100.00;93534.97;5047998;28;20048;-84
2022/03/01 05:00:58;;;;;;;12.75;10.05;;;;;;;-5.82;100.00;93398.19;5049348;28;20114;-84
2022/03/01 05:03:24;;;;;;;17.35;11.38;;;;;;;-5.46;100.00;93460.78;5049222;28;20076;-84
2022/03/01 05:05:51;;;;;;;15.65;11.63;;;;;;;-5.65;100.00;93432.03;5049213;28;20045;-85
2022/03/01 05:08:20;;;;;;;18.10;13.48;;;;;;;-4.96;100.00;93540.84;5053029;28;20051;-84
2022/03/01 05:10:46;;;;;;;18.38;14.27;;;;;;;-5.78;100.00;93423.78;5052880;28;20053;-85
2022/03/01 05:13:13;;;;;;;18.33;11.88;;;;;;;-5.09;100.00;93547.63;5052939;28;20401;-84
2022/03/01 05:15:41;;;;;;;19.00;10.35;;;;;;;-5.32;100.00;93526.66;5053164;28;20041;-85
2022/03/01 05:18:08;;;;;;;34.30;23.33;;;;;;;-5.49;100.00;93506.09;5052567;28;20052;-85
2022/03/01 05:20:35;;;;;;;22.45;14.88;;;;;;;-5.64;100.00;93486.19;5051373;28;20056;-85
2022/03/01 05:23:02;;;;;;;22.60;14.73;;;;;;;-5.67;100.00;93451.38;5052703;28;20063;-85
2022/03/01 05:25:33;;;;;;;21.20;14.98;;;;;;;-5.77;100.00;93462.91;5053049;28;20063;-85
2022/03/01 05:28:00;;;;;;;19.02;12.25;;;;;;;-5.10;100.00;93556.84;5054878;28;20071;-85
2022/03/01 05:30:27;;;;;;;18.35;12.82;;;;;;;-5.39;100.00;93534.59;5053842;28;20052;-85
2022/03/01 05:32:56;;;;;;;24.15;16.00;;;;;;;-5.53;100.00;93528.03;5052046;28;20057;-86
2022/03/01 05:35:26;;;;;;;27.40;19.67;;;;;;;-5.18;100.00;93561.59;5049486;28;20515;-85
2022/03/01 05:37:58;;;;;;;53.35;33.80;;;;;;;-6.00;100.00;93445.25;5050329;28;20052;-85
2022/03/01 05:40:27;;;;;;;48.45;29.20;;;;;;;-5.82;100.00;93490.75;5051129;28;20063;-85
2022/03/01 05:42:59;;;;;;;53.15;31.55;;;;;;;-5.77;100.00;93482.94;5051732;28;20049;-85
2022/03/01 05:45:31;;;;;;;48.58;29.88;;;;;;;-5.17;100.00;93570.69;5051467;28;20049;-85
2022/03/01 05:48:00;;;;;;;51.85;28.40;;;;;;;-5.08;100.00;93563.44;5051627;28;20060;-84
2022/03/01 05:50:27;;;;;;;33.63;19.92;;;;;;;-5.43;100.00;93509.84;5052131;28;20053;-84
2022/03/01 05:53:05;;;;;;;33.03;21.73;;;;;;;-5.52;100.00;93493.75;5051653;28;20516;-85
2022/03/01 05:55:38;;;;;;;42.67;26.73;;;;;;;-4.87;100.00;93576.19;5051305;28;20408;-86
2022/03/01 05:58:16;;;;;;;40.92;26.15;;;;;;;-5.18;100.00;93534.03;5051644;28;20059;-85
2022/03/01 06:00:45;;;;;;;39.42;26.15;;;;;;;-4.84;100.00;93549.22;5051183;28;20049;-85
2022/03/01 06:03:14;;;;;;;36.97;23.40;;;;;;;-4.57;100.00;93572.44;5050970;28;20059;-85
2022/03/01 06:05:42;;;;;;;35.40;19.63;;;;;;;-4.88;100.00;93502.72;5051489;28;20064;-85
2022/03/01 06:08:09;;;;;;;23.75;15.68;;;;;;;-4.13;100.00;93581.91;5051992;28;20151;-84
2022/03/01 06:10:36;;;;;;;25.88;15.45;;;;;;;-3.94;100.00;93573.84;5051580;28;20060;-83
2022/03/01 06:13:03;;;;;;;18.00;12.65;;;;;;;-3.70;100.00;93577.97;5051409;28;20060;-83
2022/03/01 06:15:31;;;;;;;20.25;12.85;;;;;;;-3.29;100.00;93605.94;5051257;28;20049;-83
2022/03/01 06:17:58;;;;;;;15.68;11.60;;;;;;;-3.31;100.00;93573.41;5050452;28;20051;-82
2022/03/01 06:20:25;;;;;;;22.95;12.77;;;;;;;-2.88;100.00;93607.03;5050698;28;20056;-82
2022/03/01 06:22:52;;;;;;;20.48;13.65;;;;;;;-3.32;100.00;93516.53;5050372;28;20056;-83
2022/03/01 06:25:19;;;;;;;23.30;14.40;;;;;;;-2.89;100.00;93556.84;5050700;28;20469;-83
2022/03/01 06:27:46;;;;;;;24.63;14.95;;;;;;;-2.33;100.00;93607.88;5050511;28;20053;-84
2022/03/01 06:30:14;;;;;;;28.20;15.82;;;;;;;-2.78;100.00;93508.25;5051390;28;20076;-84
2022/03/01 06:32:42;;;;;;;30.73;16.40;;;;;;;-2.36;100.00;93546.00;5050966;28;20062;-83
2022/03/01 06:35:09;;;;;;;29.42;15.90;;;;;;;-1.86;100.00;93584.06;5050665;28;20057;-83
2022/03/01 06:37:36;;;;;;;28.60;16.88;;;;;;;-1.87;100.00;93568.16;5050779;28;20489;-83
2022/03/01 06:40:07;;;;;;;29.27;17.70;;;;;;;-2.17;100.00;93524.41;5051019;28;20385;-85
2022/03/01 06:42:36;;;;;;;36.80;19.73;;;;;;;-1.63;100.00;93592.25;5050288;28;20049;-85
2022/03/01 06:45:06;;;;;;;39.90;21.85;;;;;;;-1.88;100.00;93541.38;5050366;28;20522;-84
2022/03/01 06:47:33;;;;;;;40.17;23.95;;;;;;;-1.50;100.00;93564.34;5051048;28;20064;-84
2022/03/01 06:50:02;;;;;;;45.75;26.02;;;;;;;-1.17;100.00;93586.88;5050457;28;20063;-84
2022/03/01 06:52:31;;;;;;;39.88;23.75;;;;;;;-1.22;100.00;93600.66;5050518;28;20140;-84
2022/03/01 06:54:57;;;;;;;48.03;25.10;;;;;;;-1.68;100.00;93526.34;5050412;28;20080;-84
2022/03/01 06:57:25;;;;;;;41.78;22.50;;;;;;;-1.65;100.00;93524.41;5049896;28;20446;-84
2022/03/01 06:59:53;;;;;;;58.60;38.47;;;;;;;-1.96;100.00;93473.22;5049778;28;20063;-84
2022/03/01 07:02:20;;;;;;;40.95;25.98;;;;;;;-1.16;100.00;93589.25;5049894;28;20037;-83
2022/03/01 07:04:47;;;;;;;36.97;21.05;;;;;;;-1.03;100.00;93596.59;5049811;28;20053;-83
2022/03/01 07:07:15;;;;;;;43.58;25.38;;;;;;;-1.45;100.00;93521.16;5050413;28;20057;-84
2022/03/01 07:09:42;;;;;;;29.42;19.67;;;;;;;-1.52;100.00;93515.81;5050573;28;20045;-83
2022/03/01 07:12:09;;;;;;;29.17;16.92;;;;;;;-1.06;100.00;93550.66;5049954;28;20055;-84
2022/03/01 07:14:36;;;;;;;23.45;15.55;;;;;;;-0.68;100.00;93592.00;5049792;28;20144;-83
2022/03/01 07:17:04;;;;;;;25.45;15.32;;;;;;;-0.62;100.00;93591.50;5049929;28;20515;-82
2022/03/01 07:19:31;;;;;;;22.90;14.02;;;;;;;-0.65;100.00;93576.59;5050277;28;20045;-81
2022/03/01 07:21:57;;;;;;;21.85;13.88;;;;;;;-0.36;100.00;93590.97;5050375;28;20056;-81
2022/03/01 07:24:26;;;;;;;17.80;11.23;;;;;;;-0.23;100.00;93592.44;5049885;28;20507;-80
2022/03/01 07:26:52;;;;;;;18.33;11.65;;;;;;;-0.62;98.14;93552.84;5049713;28;20053;-80
2022/03/01 07:29:19;;;;;;;18.20;12.13;;;;;;;-0.16;100.00;93594.28;5049207;28;20065;-80
2022/03/01 07:31:46;;;;;;;16.73;13.13;;;;;;;-0.01;100.00;93584.56;5049940;28;20045;-80
2022/03/01 07:34:13;;;;;;;14.48;8.90;;;;;;;-0.71;97.88;93594.78;5050055;28;20061;-81
2022/03/01 07:36:40;;;;;;;14.80;9.75;;;;;;;-0.40;99.36;93587.13;5049676;28;20777;-81
2022/03/01 07:39:07;;;;;;;16.33;8.98;;;;;;;-0.47;99.70;93584.31;5049619;28;20052;-81
2022/03/01 07:41:35;;;;;;;16.10;7.28;;;;;;;-0.48;100.00;93576.88;5049599;28;20048;-81
2022/03/01 07:44:02;;;;;;;15.57;11.77;;;;;;;-0.62;97.61;93560.41;5049683;28;20488;-80
2022/03/01 07:46:29;;;;;;;12.65;9.45;;;;;;;-0.58;100.00;93585.25;5049800;28;20060;-80
2022/03/01 07:48:55;;;;;;;12.88;7.32;;;;;;;-0.57;100.00;93591.09;5049089;28;20053;-79
2022/03/01 07:51:22;;;;;;;11.45;5.93;;;;;;;-0.85;97.82;93588.41;5049264;28;20045;-79
2022/03/01 07:53:49;;;;;;;10.20;6.53;;;;;;;-0.63;99.43;93579.81;5049099;28;20052;-79
2022/03/01 07:56:16;;;;;;;9.65;6.25;;;;;;;-0.95;96.73;93579.09;5049300;28;20102;-78
2022/03/01 07:58:44;;;;;;;13.55;8.07;;;;;;;-0.79;99.15;93580.31;5049358;28;20423;-78
2022/03/01 08:01:11;;;;;;;8.90;5.47;;;;;;;-0.73;98.38;93587.38;5048734;28;20052;-79
2022/03/01 08:03:38;;;;;;;7.95;5.05;;;;;;;-0.86;96.90;93586.81;5048857;28;20515;-79
2022/03/01 08:06:06;;;;;;;10.10;6.57;;;;;;;-0.68;100.00;93579.41;5048919;28;20435;-79
2022/03/01 08:08:32;;;;;;;10.63;6.65;;;;;;;-0.69;99.05;93568.50;5049174;28;20061;-80
2022/03/01 08:10:59;;;;;;;7.82;5.63;;;;;;;-0.50;97.59;93593.88;5049004;28;20052;-80
2022/03/01 08:13:26;;;;;;;11.30;6.55;;;;;;;-0.35;99.48;93579.94;5049493;28;20053;-81
2022/03/01 08:15:54;;;;;;;10.73;6.75;;;;;;;-0.48;97.27;93599.59;5045958;28;20056;-81
2022/03/01 08:18:21;;;;;;;7.13;5.13;;;;;;;-0.74;97.04;93588.28;5047610;28;20415;-80
2022/03/01 08:20:48;;;;;;;6.97;4.25;;;;;;;-0.61;98.69;93589.78;5048861;28;20045;-80
2022/03/01 08:23:15;;;;;;;8.48;5.35;;;;;;;-0.62;97.90;93601.59;5048936;28;20099;-81
2022/03/01 08:25:42;;;;;;;6.57;4.90;;;;;;;-0.72;97.25;93600.75;5048598;28;20507;-81
2022/03/01 08:28:09;;;;;;;9.68;6.28;;;;;;;-0.88;96.98;93607.09;5048936;28;21468;-82
2022/03/01 08:30:36;;;;;;;6.30;4.25;;;;;;;-0.92;96.85;93573.00;5048794;28;20098;-81
2022/03/01 08:33:05;;;;;;;6.78;4.93;;;;;;;-0.77;96.34;93598.66;5048612;28;20420;-81
2022/03/01 08:35:32;;;;;;;7.88;5.22;;;;;;;-0.85;96.73;93604.34;5048933;28;20049;-81
2022/03/01 08:38:02;;;;;;;7.20;4.78;;;;;;;-0.87;96.99;93587.75;5048789;28;20041;-81
2022/03/01 08:40:30;;;;;;;9.15;4.85;;;;;;;-0.51;99.96;93590.56;5048774;28;20045;-82
2022/03/01 08:42:57;;;;;;;11.32;7.88;;;;;;;-0.89;97.18;93580.28;5051922;28;20045;-81
2022/03/01 08:45:24;;;;;;;12.30;6.75;;;;;;;-0.83;96.29;93582.28;5052601;28;20057;-82
2022/03/01 08:47:52;;;;;;;6.65;3.88;;;;;;;-0.44;96.71;93603.44;5052752;28;20045;-82
2022/03/01 08:50:20;;;;;;;13.77;7.10;;;;;;;-0.47;93.26;93591.88;5052671;28;20056;-82
2022/03/01 08:52:47;;;;;;;7.38;5.13;;;;;;;-0.33;98.16;93573.03;5052361;28;20550;-84
2022/03/01 08:55:14;;;;;;;7.38;4.65;;;;;;;-0.63;94.00;93600.00;5052619;28;20079;-83
2022/03/01 08:57:41;;;;;;;8.75;5.45;;;;;;;-0.39;95.72;93596.28;5052518;28;20068;-83
2022/03/01 09:00:11;;;;;;;8.85;5.82;;;;;;;0.03;97.33;93574.16;5052606;28;20136;-85
2022/03/01 09:02:38;;;;;;;9.52;5.95;;;;;;;-0.07;93.28;93609.53;5052368;28;20144;-84
2022/03/01 09:05:06;;;;;;;6.13;4.53;;;;;;;-0.23;93.34;93597.47;5051551;28;20052;-83
2022/03/01 09:07:35;;;;;;;7.28;3.95;;;;;;;-0.60;94.36;93523.22;5051732;28;20045;-84
2022/03/01 09:10:02;;;;;;;8.18;6.00;;;;;;;-0.43;93.28;93584.84;5051898;28;20057;-84
2022/03/01 09:12:29;;;;;;;8.13;5.03;;;;;;;0.17;94.23;93601.53;5051642;28;20045;-84
2022/03/01 09:14:56;;;;;;;4.65;3.47;;;;;;;-0.21;90.07;93515.63;5051878;28;20045;-85
2022/03/01 09:17:23;;;;;;;5.75;2.90;;;;;;;-0.15;86.79;93567.28;5051576;28;20678;-83
2022/03/01 09:19:50;;;;;;;6.10;4.25;;;;;;;-0.35;88.64;93538.75;5051657;28;20103;-86
2022/03/01 09:22:17;;;;;;;5.38;3.83;;;;;;;0.26;88.56;93603.25;5051555;28;20053;-85
2022/03/01 09:24:45;;;;;;;5.53;3.25;;;;;;;0.29;87.30;93604.72;5051326;28;20049;-85
2022/03/01 09:27:13;;;;;;;6.25;3.92;;;;;;;0.36;87.33;93604.94;5051308;28;20049;-85
2022/03/01 09:29:40;;;;;;;9.07;4.95;;;;;;;-0.35;86.81;93531.19;5052196;28;20053;-85
2022/03/01 09:32:07;;;;;;;7.75;5.05;;;;;;;0.27;85.38;93614.16;5051884;28;20069;-84
2022/03/01 09:34:34;;;;;;;10.30;6.13;;;;;;;0.29;86.94;93608.97;5052242;28;20053;-85
2022/03/01 09:37:01;;;;;;;9.30;5.45;;;;;;;-0.01;85.93;93551.72;5052233;28;20053;-85
2022/03/01 09:39:28;;;;;;;5.90;3.83;;;;;;;0.15;85.59;93585.72;5051947;28;20055;-85
2022/03/01 09:41:57;;;;;;;6.03;3.90;;;;;;;0.37;84.30;93609.88;5051284;28;20045;-85
2022/03/01 09:44:24;;;;;;;5.43;3.35;;;;;;;0.45;88.30;93596.56;5051213;28;20048;-85
2022/03/01 09:46:51;;;;;;;6.43;4.15;;;;;;;0.47;86.60;93592.16;5051094;28;20076;-85
2022/03/01 09:49:18;;;;;;;7.43;3.92;;;;;;;0.26;85.20;93556.97;5048772;28;20049;-85
2022/03/01 09:51:46;;;;;;;6.18;3.97;;;;;;;0.52;86.32;93599.34;5049128;28;20128;-86
2022/03/01 09:54:13;;;;;;;5.00;3.40;;;;;;;0.05;86.86;93605.16;5050608;28;20053;-85
2022/03/01 09:56:40;;;;;;;6.22;4.45;;;;;;;0.43;89.41;93588.31;5051016;28;20144;-85
2022/03/01 09:59:08;;;;;;;7.35;5.03;;;;;;;0.05;88.45;93504.13;5051232;28;20056;-86
2022/03/01 10:01:35;;;;;;;7.25;4.60;;;;;;;0.79;89.58;93596.03;5051840;28;20156;-85
2022/03/01 10:04:09;;;;;;;5.47;3.70;;;;;;;0.08;85.63;93494.53;5051610;28;20053;-84
2022/03/01 10:06:44;;;;;;;5.63;3.75;;;;;;;0.31;85.81;93526.22;5051149;28;20045;-85
2022/03/01 10:09:16;;;;;;;6.70;4.25;;;;;;;0.81;88.03;93590.84;5050522;28;20420;-85
2022/03/01 10:11:44;;;;;;;4.97;3.47;;;;;;;0.40;85.62;93522.88;5051326;28;20041;-85
2022/03/01 10:14:13;;;;;;;7.80;4.45;;;;;;;0.64;85.51;93551.91;5051053;28;20092;-85
2022/03/01 10:16:41;;;;;;;7.45;4.05;;;;;;;0.71;84.09;93575.72;5051673;28;20471;-84
2022/03/01 10:19:17;;;;;;;7.20;4.25;;;;;;;0.78;84.47;93584.31;5051540;28;20056;-84
2022/03/01 10:21:48;;;;;;;24.02;11.35;;;;;;;0.47;83.54;93531.47;5051144;28;20443;-84
2022/03/01 10:24:15;;;;;;;7.30;5.22;;;;;;;0.03;85.68;93463.84;5051265;28;20424;-84
2022/03/01 10:26:44;;;;;;;7.85;5.05;;;;;;;0.87;84.27;93590.28;5051287;28;20053;-84
2022/03/01 10:29:12;;;;;;;8.30;3.83;;;;;;;1.16;84.94;93589.31;5050605;28;20068;-84
2022/03/01 10:31:39;;;;;;;10.15;7.25;;;;;;;1.11;84.89;93570.44;5050868;28;20437;-84
2022/03/01 10:34:08;;;;;;;8.98;5.05;;;;;;;1.28;82.86;93584.84;5050928;28;20492;-84
2022/03/01 10:36:37;;;;;;;8.38;4.85;;;;;;;1.13;84.31;93578.69;5051012;28;20057;-84
2022/03/01 10:39:08;;;;;;;11.90;6.85;;;;;;;1.19;86.07;93576.38;5051143;28;20052;-84
2022/03/01 10:41:37;;;;;;;8.00;4.85;;;;;;;1.31;86.10;93550.88;5051145;28;20072;-84
2022/03/01 10:44:05;;;;;;;7.43;4.88;;;;;;;1.02;82.19;93569.56;5050178;28;20052;-82
2022/03/01 10:46:41;;;;;;;5.05;3.05;;;;;;;0.66;83.86;93542.47;5050148;28;20049;-82
2022/03/01 10:49:10;;;;;;;5.57;3.40;;;;;;;0.03;85.39;93445.34;5050378;28;20053;-84
2022/03/01 10:51:48;;;;;;;7.63;4.68;;;;;;;0.74;85.02;93542.53;5049855;28;20053;-85
2022/03/01 10:54:25;;;;;;;7.47;3.92;;;;;;;0.50;82.83;93490.78;5050229;28;20045;-84
2022/03/01 10:56:53;;;;;;;6.30;3.47;;;;;;;0.38;83.54;93484.31;5050348;28;20053;-85
2022/03/01 10:59:21;;;;;;;7.25;3.60;;;;;;;0.84;84.89;93551.81;5050654;28;20053;-85
2022/03/01 11:01:50;;;;;;;8.45;4.97;;;;;;;0.66;85.80;93540.72;5050707;28;20052;-84
2022/03/01 11:04:18;;;;;;;7.82;4.68;;;;;;;0.73;84.58;93535.91;5049680;28;20381;-86
2022/03/01 11:06:49;;;;;;;8.48;4.95;;;;;;;0.15;87.08;93400.50;5050082;28;20492;-86
2022/03/01 11:09:17;;;;;;;7.15;5.30;;;;;;;0.57;85.97;93482.63;5050300;28;20136;-85
2022/03/01 11:11:46;;;;;;;5.95;4.43;;;;;;;0.99;84.09;93534.44;5049869;28;20095;-85
2022/03/01 11:14:20;;;;;;;8.77;5.47;;;;;;;1.28;87.99;93501.34;5050195;28;20069;-86
2022/03/01 11:17:04;;;;;;;5.78;3.67;;;;;;;1.06;83.46;93467.94;5050079;28;20059;-85
2022/03/01 11:19:51;;;;;;;6.28;3.85;;;;;;;1.62;84.05;93529.44;5050321;28;20049;-86
2022/03/01 11:22:22;;;;;;;6.78;3.83;;;;;;;1.70;82.57;93524.44;5050513;28;20458;-84
2022/03/01 11:24:50;;;;;;;4.72;3.20;;;;;;;0.51;83.01;93446.88;5049743;28;20811;-85
2022/03/01 11:27:21;;;;;;;7.68;4.53;;;;;;;1.23;85.26;93530.53;5050037;28;20057;-85